sensor_id;sensor_type;location;lat;lon;timestamp;pressure;altitude;pressure_sealevel;temperature;humidity
35023;BME280;21214;44.912;8.204;2023-05-01T00:01:10;99530.03;;;16.12;100.00
35023;BME280;21214;44.912;8.204;2023-05-01T00:03:36;99540.13;;;16.17;100.00
35023;BME280;21214;44.912;8.204;2023-05-01T00:06:02;99516.88;;;16.11;100.00
35023;BME280;21214;44.912;8.204;2023-05-01T00:08:28;99519.59;;;16.03;100.00
35023;BME280;21214;44.912;8.204;2023-05-01T00:10:54;99521.69;;;15.92;100.00
35023;BME280;21214;44.912;8.204;2023-05-01T00:13:20;99518.06;;;15.85;100.00
35023;BME280;21214;44.912;8.204;2023-05-01T00:15:48;99513.25;;;15.89;100.00
35023;BME280;21214;44.912;8.204;2023-05-01T00:18:14;99515.41;;;15.85;100.00
35023;BME280;21214;44.912;8.204;2023-05-01T00:20:39;99519.31;;;15.75;100.00
35023;BME280;21214;44.912;8.204;2023-05-01T00:23:06;99519.47;;;15.73;100.00
35023;BME280;21214;44.912;8.204;2023-05-01T00:25:32;99519.47;;;15.73;100.00
35023;BME280;21214;44.912;8.204;2023-05-01T00:27:58;99516.13;;;15.79;100.00
35023;BME280;21214;44.912;8.204;2023-05-01T00:30:24;99513.78;;;15.84;100.00
35023;BME280;21214;44.912;8.204;2023-05-01T00:32:49;99513.41;;;15.87;100.00
35023;BME280;21214;44.912;8.204;2023-05-01T00:35:15;99516.06;;;15.87;100.00
35023;BME280;21214;44.912;8.204;2023-05-01T00:37:40;99507.09;;;15.88;100.00
35023;BME280;21214;44.912;8.204;2023-05-01T00:40:06;99509.78;;;15.80;100.00
35023;BME280;21214;44.912;8.204;2023-05-01T00:42:35;99510.63;;;15.81;100.00
35023;BME280;21214;44.912;8.204;2023-05-01T00:45:01;99507.97;;;15.81;100.00
35023;BME280;21214;44.912;8.204;2023-05-01T00:47:27;99500.94;;;15.88;100.00
35023;BME280;21214;44.912;8.204;2023-05-01T00:49:53;99501.38;;;15.91;100.00
35023;BME280;21214;44.912;8.204;2023-05-01T00:52:19;99498.56;;;15.93;100.00
35023;BME280;21214;44.912;8.204;2023-05-01T00:54:44;99499.44;;;15.85;100.00
35023;BME280;21214;44.912;8.204;2023-05-01T00:57:21;99494.53;;;15.74;100.00
35023;BME280;21214;44.912;8.204;2023-05-01T00:59:47;99491.94;;;15.66;100.00
35023;BME280;21214;44.912;8.204;2023-05-01T01:02:13;99486.69;;;15.50;100.00
35023;BME280;21214;44.912;8.204;2023-05-01T01:04:42;99487.72;;;15.49;100.00
35023;BME280;21214;44.912;8.204;2023-05-01T01:09:48;99486.06;;;15.48;100.00
35023;BME280;21214;44.912;8.204;2023-05-01T01:14:49;99481.06;;;15.53;100.00
35023;BME280;21214;44.912;8.204;2023-05-01T01:17:23;99477.41;;;15.54;100.00
35023;BME280;21214;44.912;8.204;2023-05-01T01:19:57;99472.09;;;15.54;100.00
35023;BME280;21214;44.912;8.204;2023-05-01T01:22:28;99473.75;;;15.55;100.00
35023;BME280;21214;44.912;8.204;2023-05-01T01:28:05;99470.09;;;15.48;100.00
35023;BME280;21214;44.912;8.204;2023-05-01T01:35:30;99452.19;;;15.42;100.00
35023;BME280;21214;44.912;8.204;2023-05-01T01:37:59;99461.50;;;15.38;100.00
35023;BME280;21214;44.912;8.204;2023-05-01T01:40:31;99456.19;;;15.38;100.00
35023;BME280;21214;44.912;8.204;2023-05-01T01:42:58;99454.56;;;15.37;100.00
35023;BME280;21214;44.912;8.204;2023-05-01T01:45:32;99453.59;;;15.30;100.00
35023;BME280;21214;44.912;8.204;2023-05-01T01:47:59;99451.94;;;15.29;100.00
35023;BME280;21214;44.912;8.204;2023-05-01T01:50:25;99446.59;;;15.29;100.00
35023;BME280;21214;44.912;8.204;2023-05-01T01:52:52;99446.66;;;15.21;100.00
35023;BME280;21214;44.912;8.204;2023-05-01T01:55:20;99447.53;;;15.13;100.00
35023;BME280;21214;44.912;8.204;2023-05-01T01:57:46;99443.75;;;15.07;100.00
35023;BME280;21214;44.912;8.204;2023-05-01T02:00:13;99448.25;;;15.07;100.00
35023;BME280;21214;44.912;8.204;2023-05-01T02:02:43;99441.78;;;15.01;100.00
35023;BME280;21214;44.912;8.204;2023-05-01T02:05:12;99443.78;;;14.99;100.00
35023;BME280;21214;44.912;8.204;2023-05-01T02:07:38;99453.06;;;15.03;100.00
35023;BME280;21214;44.912;8.204;2023-05-01T02:10:05;99442.78;;;15.00;100.00
35023;BME280;21214;44.912;8.204;2023-05-01T02:12:32;99436.28;;;15.03;100.00
35023;BME280;21214;44.912;8.204;2023-05-01T02:14:58;99438.78;;;15.04;100.00
35023;BME280;21214;44.912;8.204;2023-05-01T02:17:24;99443.75;;;15.07;100.00
35023;BME280;21214;44.912;8.204;2023-05-01T02:19:51;99444.56;;;15.08;100.00
35023;BME280;21214;44.912;8.204;2023-05-01T02:22:19;99440.75;;;15.02;100.00
35023;BME280;21214;44.912;8.204;2023-05-01T02:24:47;99435.78;;;15.07;100.00
35023;BME280;21214;44.912;8.204;2023-05-01T02:27:18;99432.47;;;15.05;100.00
35023;BME280;21214;44.912;8.204;2023-05-01T02:29:45;99434.13;;;15.06;100.00
35023;BME280;21214;44.912;8.204;2023-05-01T02:32:11;99426.78;;;15.08;100.00
35023;BME280;21214;44.912;8.204;2023-05-01T02:34:37;99430.75;;;15.12;100.00
35023;BME280;21214;44.912;8.204;2023-05-01T02:37:03;99426.16;;;15.06;100.00
35023;BME280;21214;44.912;8.204;2023-05-01T02:39:30;99424.47;;;15.05;100.00
35023;BME280;21214;44.912;8.204;2023-05-01T02:41:55;99417.19;;;15.07;100.00
35023;BME280;21214;44.912;8.204;2023-05-01T02:44:23;99424.47;;;15.05;100.00
35023;BME280;21214;44.912;8.204;2023-05-01T02:46:49;99422.50;;;15.07;100.00
35023;BME280;21214;44.912;8.204;2023-05-01T02:49:16;99424.81;;;15.02;100.00
35023;BME280;21214;44.912;8.204;2023-05-01T02:51:43;99429.13;;;15.03;100.00
35023;BME280;21214;44.912;8.204;2023-05-01T02:54:09;99423.81;;;15.03;100.00
35023;BME280;21214;44.912;8.204;2023-05-01T02:56:35;99415.53;;;15.06;100.00
35023;BME280;21214;44.912;8.204;2023-05-01T02:59:00;99415.84;;;15.03;100.00
35023;BME280;21214;44.912;8.204;2023-05-01T03:01:26;99409.38;;;15.06;100.00
35023;BME280;21214;44.912;8.204;2023-05-01T03:03:52;99404.59;;;15.01;100.00
35023;BME280;21214;44.912;8.204;2023-05-01T03:06:18;99403.56;;;15.02;100.00
35023;BME280;21214;44.912;8.204;2023-05-01T03:08:43;99406.41;;;15.01;100.00
35023;BME280;21214;44.912;8.204;2023-05-01T03:11:09;99397.25;;;15.03;100.00
35023;BME280;21214;44.912;8.204;2023-05-01T03:13:34;99397.63;;;15.00;100.00
35023;BME280;21214;44.912;8.204;2023-05-01T03:15:59;99392.34;;;14.92;100.00
35023;BME280;21214;44.912;8.204;2023-05-01T03:18:25;99385.84;;;14.95;100.00
35023;BME280;21214;44.912;8.204;2023-05-01T03:20:51;99390.34;;;14.94;100.00
35023;BME280;21214;44.912;8.204;2023-05-01T03:23:18;99378.41;;;14.90;100.00
35023;BME280;21214;44.912;8.204;2023-05-01T03:25:43;99373.09;;;14.90;100.00
35023;BME280;21214;44.912;8.204;2023-05-01T03:28:09;99373.28;;;14.89;100.00
35023;BME280;21214;44.912;8.204;2023-05-01T03:30:34;99373.91;;;14.91;100.00
35023;BME280;21214;44.912;8.204;2023-05-01T03:33:01;99373.44;;;14.87;100.00
35023;BME280;21214;44.912;8.204;2023-05-01T03:35:29;99373.44;;;14.87;100.00
35023;BME280;21214;44.912;8.204;2023-05-01T03:37:55;99378.28;;;14.84;100.00
35023;BME280;21214;44.912;8.204;2023-05-01T03:40:40;99378.09;;;14.85;100.00
35023;BME280;21214;44.912;8.204;2023-05-01T03:43:34;99375.94;;;14.89;100.00
35023;BME280;21214;44.912;8.204;2023-05-01T03:46:05;99379.13;;;14.84;100.00
35023;BME280;21214;44.912;8.204;2023-05-01T03:48:31;99385.72;;;14.88;100.00
35023;BME280;21214;44.912;8.204;2023-05-01T03:50:56;99388.22;;;14.90;100.00
35023;BME280;21214;44.912;8.204;2023-05-01T03:53:22;99387.50;;;14.96;100.00
35023;BME280;21214;44.912;8.204;2023-05-01T03:55:49;99388.31;;;14.96;100.00
35023;BME280;21214;44.912;8.204;2023-05-01T03:58:15;99390.47;;;15.01;100.00
35023;BME280;21214;44.912;8.204;2023-05-01T04:00:40;99387.97;;;14.99;100.00
35023;BME280;21214;44.912;8.204;2023-05-01T04:03:26;99383.66;;;14.98;100.00
35023;BME280;21214;44.912;8.204;2023-05-01T04:05:52;99393.63;;;14.96;100.00
35023;BME280;21214;44.912;8.204;2023-05-01T04:08:17;99386.50;;;14.97;100.00
35023;BME280;21214;44.912;8.204;2023-05-01T04:10:43;99395.28;;;14.97;100.00
35023;BME280;21214;44.912;8.204;2023-05-01T04:13:08;99389.97;;;14.97;100.00
35023;BME280;21214;44.912;8.204;2023-05-01T04:15:35;99392.34;;;14.92;100.00
35023;BME280;21214;44.912;8.204;2023-05-01T04:18:00;99397.00;;;14.90;100.00
35023;BME280;21214;44.912;8.204;2023-05-01T04:20:26;99396.00;;;14.91;100.00
35023;BME280;21214;44.912;8.204;2023-05-01T04:22:51;99400.97;;;14.94;100.00
35023;BME280;21214;44.912;8.204;2023-05-01T04:25:16;99401.59;;;14.96;100.00
35023;BME280;21214;44.912;8.204;2023-05-01T04:27:43;99402.63;;;14.95;100.00
35023;BME280;21214;44.912;8.204;2023-05-01T04:30:09;99399.66;;;14.90;100.00
35023;BME280;21214;44.912;8.204;2023-05-01T04:32:34;99403.47;;;14.96;100.00
35023;BME280;21214;44.912;8.204;2023-05-01T04:35:01;99402.97;;;14.92;100.00
35023;BME280;21214;44.912;8.204;2023-05-01T04:37:27;99410.28;;;14.90;100.00
35023;BME280;21214;44.912;8.204;2023-05-01T04:39:53;99415.25;;;14.93;100.00
35023;BME280;21214;44.912;8.204;2023-05-01T04:42:20;99415.25;;;14.93;100.00
35023;BME280;21214;44.912;8.204;2023-05-01T04:44:45;99416.91;;;14.94;100.00
35023;BME280;21214;44.912;8.204;2023-05-01T04:47:14;99417.22;;;14.99;100.00
35023;BME280;21214;44.912;8.204;2023-05-01T04:49:40;99422.22;;;14.94;100.00
35023;BME280;21214;44.912;8.204;2023-05-01T04:52:05;99424.91;;;14.86;100.00
35023;BME280;21214;44.912;8.204;2023-05-01T04:54:43;99426.56;;;14.87;100.00
35023;BME280;21214;44.912;8.204;2023-05-01T04:57:10;99429.88;;;14.89;100.00
35023;BME280;21214;44.912;8.204;2023-05-01T04:59:35;99427.69;;;14.93;100.00
35023;BME280;21214;44.912;8.204;2023-05-01T05:02:01;99427.03;;;14.91;100.00
35023;BME280;21214;44.912;8.204;2023-05-01T05:04:26;99429.06;;;14.89;100.00
35023;BME280;21214;44.912;8.204;2023-05-01T05:06:52;99442.34;;;14.89;100.00
35023;BME280;21214;44.912;8.204;2023-05-01T05:09:25;99444.47;;;14.93;100.00
35023;BME280;21214;44.912;8.204;2023-05-01T05:11:50;99446.59;;;14.98;100.00
35023;BME280;21214;44.912;8.204;2023-05-01T05:14:19;99443.13;;;14.97;100.00
35023;BME280;21214;44.912;8.204;2023-05-01T05:16:45;99444.25;;;15.03;100.00
35023;BME280;21214;44.912;8.204;2023-05-01T05:19:11;99450.59;;;15.02;100.00
35023;BME280;21214;44.912;8.204;2023-05-01T05:21:40;99442.47;;;14.95;100.00
35023;BME280;21214;44.912;8.204;2023-05-01T05:24:05;99451.16;;;14.89;100.00
35023;BME280;21214;44.912;8.204;2023-05-01T05:26:31;99447.13;;;14.93;100.00
35023;BME280;21214;44.912;8.204;2023-05-01T05:29:00;99454.09;;;14.94;100.00
35023;BME280;21214;44.912;8.204;2023-05-01T05:31:25;99457.41;;;14.96;100.00
35023;BME280;21214;44.912;8.204;2023-05-01T05:33:51;99459.41;;;14.94;100.00
35023;BME280;21214;44.912;8.204;2023-05-01T05:36:17;99460.25;;;14.95;100.00
35023;BME280;21214;44.912;8.204;2023-05-01T05:38:42;99459.41;;;14.94;100.00
35023;BME280;21214;44.912;8.204;2023-05-01T05:41:12;99456.09;;;14.92;100.00
35023;BME280;21214;44.912;8.204;2023-05-01T05:43:38;99451.44;;;14.94;100.00
35023;BME280;21214;44.912;8.204;2023-05-01T05:46:05;99454.09;;;14.94;100.00
35023;BME280;21214;44.912;8.204;2023-05-01T05:48:33;99450.44;;;14.95;100.00
35023;BME280;21214;44.912;8.204;2023-05-01T05:50:59;99454.06;;;15.02;100.00
35023;BME280;21214;44.912;8.204;2023-05-01T05:53:25;99456.06;;;15.00;100.00
35023;BME280;21214;44.912;8.204;2023-05-01T05:55:50;99468.75;;;14.90;100.00
35023;BME280;21214;44.912;8.204;2023-05-01T05:58:16;99466.09;;;14.90;100.00
35023;BME280;21214;44.912;8.204;2023-05-01T06:00:45;99453.97;;;14.88;100.00
35023;BME280;21214;44.912;8.204;2023-05-01T06:03:11;99460.28;;;14.87;100.00
35023;BME280;21214;44.912;8.204;2023-05-01T06:05:37;99458.44;;;14.87;100.00
35023;BME280;21214;44.912;8.204;2023-05-01T06:08:02;99454.28;;;14.93;100.00
35023;BME280;21214;44.912;8.204;2023-05-01T06:10:28;99453.13;;;14.87;100.00
35023;BME280;21214;44.912;8.204;2023-05-01T06:12:53;99457.09;;;14.91;100.00
35023;BME280;21214;44.912;8.204;2023-05-01T06:15:18;99458.44;;;14.87;100.00
35023;BME280;21214;44.912;8.204;2023-05-01T06:17:50;99462.09;;;14.86;100.00
35023;BME280;21214;44.912;8.204;2023-05-01T06:20:16;99455.47;;;14.90;100.00
35023;BME280;21214;44.912;8.204;2023-05-01T06:22:42;99457.28;;;14.90;100.00
35023;BME280;21214;44.912;8.204;2023-05-01T06:25:13;99459.41;;;14.94;100.00
35023;BME280;21214;44.912;8.204;2023-05-01T06:27:39;99457.22;;;14.98;100.00
35023;BME280;21214;44.912;8.204;2023-05-01T06:30:04;99458.72;;;15.00;100.00
35023;BME280;21214;44.912;8.204;2023-05-01T06:32:32;99464.50;;;15.04;100.00
35023;BME280;21214;44.912;8.204;2023-05-01T06:34:57;99459.19;;;15.04;100.00
35023;BME280;21214;44.912;8.204;2023-05-01T06:37:23;99465.34;;;15.04;100.00
35023;BME280;21214;44.912;8.204;2023-05-01T06:39:49;99466.53;;;15.02;100.00
35023;BME280;21214;44.912;8.204;2023-05-01T06:42:14;99467.34;;;15.02;100.00
35023;BME280;21214;44.912;8.204;2023-05-01T06:44:41;99457.22;;;15.06;100.00
35023;BME280;21214;44.912;8.204;2023-05-01T06:47:07;99471.97;;;15.08;100.00
35023;BME280;21214;44.912;8.204;2023-05-01T06:49:32;99470.78;;;15.11;100.00
35023;BME280;21214;44.912;8.204;2023-05-01T06:51:59;99473.75;;;15.16;100.00
35023;BME280;21214;44.912;8.204;2023-05-01T06:54:24;99479.56;;;15.20;100.00
35023;BME280;21214;44.912;8.204;2023-05-01T06:56:53;99473.22;;;15.21;100.00
35023;BME280;21214;44.912;8.204;2023-05-01T06:59:18;99471.22;;;15.23;100.00
35023;BME280;21214;44.912;8.204;2023-05-01T07:01:44;99470.94;;;15.18;100.00
35023;BME280;21214;44.912;8.204;2023-05-01T07:04:10;99472.22;;;15.22;100.00
35023;BME280;21214;44.912;8.204;2023-05-01T07:06:35;99465.94;;;15.14;100.00
35023;BME280;21214;44.912;8.204;2023-05-01T07:09:01;99468.56;;;15.23;100.00
35023;BME280;21214;44.912;8.204;2023-05-01T07:11:27;99467.50;;;15.32;100.00
35023;BME280;21214;44.912;8.204;2023-05-01T07:13:53;99463.22;;;15.31;100.00
35023;BME280;21214;44.912;8.204;2023-05-01T07:16:18;99469.66;;;15.36;100.00
35023;BME280;21214;44.912;8.204;2023-05-01T07:18:44;99468.69;;;15.37;100.00
35023;BME280;21214;44.912;8.204;2023-05-01T07:21:10;99465.13;;;15.45;100.00
35023;BME280;21214;44.912;8.204;2023-05-01T07:23:36;99469.44;;;15.46;100.00
35023;BME280;21214;44.912;8.204;2023-05-01T07:26:01;99470.72;;;15.50;100.00
35023;BME280;21214;44.912;8.204;2023-05-01T07:28:27;99472.56;;;15.49;100.00
35023;BME280;21214;44.912;8.204;2023-05-01T07:30:52;99474.38;;;15.57;100.00
35023;BME280;21214;44.912;8.204;2023-05-01T07:33:17;99472.09;;;15.54;100.00
35023;BME280;21214;44.912;8.204;2023-05-01T07:35:43;99475.75;;;15.53;100.00
35023;BME280;21214;44.912;8.204;2023-05-01T07:38:08;99474.75;;;15.54;100.00
35023;BME280;21214;44.912;8.204;2023-05-01T07:40:34;99472.91;;;15.54;100.00
35023;BME280;21214;44.912;8.204;2023-05-01T07:42:59;99480.72;;;15.48;100.00
35023;BME280;21214;44.912;8.204;2023-05-01T07:45:25;99469.44;;;15.46;100.00
35023;BME280;21214;44.912;8.204;2023-05-01T07:47:50;99472.25;;;15.44;100.00
35023;BME280;21214;44.912;8.204;2023-05-01T07:50:16;99471.09;;;15.47;100.00
35023;BME280;21214;44.912;8.204;2023-05-01T07:52:42;99478.06;;;15.48;100.00
35023;BME280;21214;44.912;8.204;2023-05-01T07:55:07;99476.75;;;15.44;100.00
35023;BME280;21214;44.912;8.204;2023-05-01T07:57:33;99475.22;;;15.49;100.00
35023;BME280;21214;44.912;8.204;2023-05-01T07:59:59;99474.22;;;15.59;100.00
35023;BME280;21214;44.912;8.204;2023-05-01T08:02:24;99476.91;;;15.73;100.00
35023;BME280;21214;44.912;8.204;2023-05-01T08:04:49;99467.34;;;15.87;100.00
35023;BME280;21214;44.912;8.204;2023-05-01T08:07:15;99474.06;;;15.97;100.00
35023;BME280;21214;44.912;8.204;2023-05-01T08:09:41;99477.63;;;16.13;100.00
35023;BME280;21214;44.912;8.204;2023-05-01T08:12:06;99471.19;;;16.22;100.00
35023;BME280;21214;44.912;8.204;2023-05-01T08:14:31;99477.06;;;16.32;100.00
35023;BME280;21214;44.912;8.204;2023-05-01T08:16:57;99472.69;;;16.39;100.00
35023;BME280;21214;44.912;8.204;2023-05-01T08:19:22;99472.69;;;16.39;100.00
35023;BME280;21214;44.912;8.204;2023-05-01T08:21:47;99476.72;;;16.35;100.00
35023;BME280;21214;44.912;8.204;2023-05-01T08:24:13;99480.41;;;16.34;100.00
35023;BME280;21214;44.912;8.204;2023-05-01T08:26:38;99490.13;;;16.27;100.00
35023;BME280;21214;44.912;8.204;2023-05-01T08:29:04;99487.00;;;16.23;100.00
35023;BME280;21214;44.912;8.204;2023-05-01T08:31:29;99488.78;;;16.08;100.00
35023;BME280;21214;44.912;8.204;2023-05-01T08:33:54;99491.97;;;16.04;100.00
35023;BME280;21214;44.912;8.204;2023-05-01T08:36:20;99489.31;;;16.04;100.00
35023;BME280;21214;44.912;8.204;2023-05-01T08:38:45;99491.44;;;16.08;100.00
35023;BME280;21214;44.912;8.204;2023-05-01T08:41:14;99488.25;;;16.13;100.00
35023;BME280;21214;44.912;8.204;2023-05-01T08:43:40;99496.53;;;16.18;100.00
35023;BME280;21214;44.912;8.204;2023-05-01T08:46:06;99498.38;;;16.17;100.00
35023;BME280;21214;44.912;8.204;2023-05-01T08:48:33;99492.63;;;16.06;100.00
35023;BME280;21214;44.912;8.204;2023-05-01T08:50:59;99498.69;;;16.00;100.00
35023;BME280;21214;44.912;8.204;2023-05-01T08:53:27;99496.69;;;16.02;100.00
35023;BME280;21214;44.912;8.204;2023-05-01T08:55:54;99500.34;;;16.01;100.00
35023;BME280;21214;44.912;8.204;2023-05-01T08:58:23;99502.00;;;16.02;100.00
35023;BME280;21214;44.912;8.204;2023-05-01T09:00:48;99504.94;;;16.07;100.00
35023;BME280;21214;44.912;8.204;2023-05-01T09:03:14;99499.75;;;16.13;100.00
35023;BME280;21214;44.912;8.204;2023-05-01T09:05:40;99500.38;;;16.15;100.00
35023;BME280;21214;44.912;8.204;2023-05-01T09:08:06;99498.91;;;16.13;100.00
35023;BME280;21214;44.912;8.204;2023-05-01T09:10:32;99493.94;;;16.10;100.00
35023;BME280;21214;44.912;8.204;2023-05-01T09:12:59;99496.75;;;16.08;100.00
35023;BME280;21214;44.912;8.204;2023-05-01T09:15:25;99497.41;;;16.10;100.00
35023;BME280;21214;44.912;8.204;2023-05-01T09:17:51;99494.03;;;16.16;100.00
35023;BME280;21214;44.912;8.204;2023-05-01T09:20:17;99496.69;;;16.16;100.00
35023;BME280;21214;44.912;8.204;2023-05-01T09:22:43;99503.31;;;16.20;100.00
35023;BME280;21214;44.912;8.204;2023-05-01T09:25:08;99501.13;;;16.24;100.00
35023;BME280;21214;44.912;8.204;2023-05-01T09:27:35;99509.75;;;16.26;100.00
35023;BME280;21214;44.912;8.204;2023-05-01T09:30:01;99509.13;;;16.24;100.00
35023;BME280;21214;44.912;8.204;2023-05-01T09:32:27;99511.78;;;16.24;100.00
35023;BME280;21214;44.912;8.204;2023-05-01T09:34:53;99517.00;;;16.17;100.00
35023;BME280;21214;44.912;8.204;2023-05-01T09:37:31;99512.50;;;16.18;100.00
35023;BME280;21214;44.912;8.204;2023-05-01T09:40:10;99513.78;;;16.22;100.00
35023;BME280;21214;44.912;8.204;2023-05-01T09:42:37;99527.38;;;16.27;100.00
35023;BME280;21214;44.912;8.204;2023-05-01T09:45:05;99524.44;;;16.22;100.00
35023;BME280;21214;44.912;8.204;2023-05-01T09:47:31;99524.56;;;16.28;100.00
35023;BME280;21214;44.912;8.204;2023-05-01T09:49:58;99518.06;;;16.31;100.00
35023;BME280;21214;44.912;8.204;2023-05-01T09:52:27;99523.72;;;16.28;100.00
35023;BME280;21214;44.912;8.204;2023-05-01T09:55:12;99530.72;;;16.29;100.00
35023;BME280;21214;44.912;8.204;2023-05-01T09:57:38;99525.94;;;16.39;100.00
35023;BME280;21214;44.912;8.204;2023-05-01T10:00:03;99533.31;;;16.37;100.00
35023;BME280;21214;44.912;8.204;2023-05-01T10:02:33;99530.81;;;16.35;100.00
35023;BME280;21214;44.912;8.204;2023-05-01T10:04:58;99538.53;;;16.45;100.00
35023;BME280;21214;44.912;8.204;2023-05-01T10:07:24;99527.59;;;16.40;100.00
35023;BME280;21214;44.912;8.204;2023-05-01T10:09:50;99539.53;;;16.44;100.00
35023;BME280;21214;44.912;8.204;2023-05-01T10:12:25;99542.16;;;16.52;100.00
35023;BME280;21214;44.912;8.204;2023-05-01T10:14:54;99530.44;;;16.38;100.00
35023;BME280;21214;44.912;8.204;2023-05-01T10:17:19;99532.09;;;16.39;100.00
35023;BME280;21214;44.912;8.204;2023-05-01T10:19:45;99524.41;;;16.45;100.00
35023;BME280;21214;44.912;8.204;2023-05-01T10:22:11;99531.31;;;16.54;100.00
35023;BME280;21214;44.912;8.204;2023-05-01T10:24:37;99537.28;;;16.56;100.00
35023;BME280;21214;44.912;8.204;2023-05-01T10:27:03;99530.94;;;16.42;100.00
35023;BME280;21214;44.912;8.204;2023-05-01T10:29:30;99526.94;;;16.38;100.00
35023;BME280;21214;44.912;8.204;2023-05-01T10:31:58;99530.44;;;16.38;100.00
35023;BME280;21214;44.912;8.204;2023-05-01T10:34:24;99535.06;;;16.45;100.00
35023;BME280;21214;44.912;8.204;2023-05-01T10:36:55;99535.72;;;16.47;100.00
35023;BME280;21214;44.912;8.204;2023-05-01T10:39:31;99534.22;;;16.44;100.00
35023;BME280;21214;44.912;8.204;2023-05-01T10:44:23;99530.44;;;16.38;100.00
35023;BME280;21214;44.912;8.204;2023-05-01T10:46:49;99528.38;;;16.26;100.00
35023;BME280;21214;44.912;8.204;2023-05-01T10:49:14;99531.56;;;16.07;100.00
35023;BME280;21214;44.912;8.204;2023-05-01T10:52:13;99536.59;;;16.02;100.00
35023;BME280;21214;44.912;8.204;2023-05-01T10:54:31;99530.03;;;15.89;100.00
35023;BME280;21214;44.912;8.204;2023-05-01T10:57:00;99535.81;;;15.70;100.00
35023;BME280;21214;44.912;8.204;2023-05-01T11:00:11;99528.50;;;15.72;100.00
35023;BME280;21214;44.912;8.204;2023-05-01T11:02:21;99534.16;;;15.69;100.00
35023;BME280;21214;44.912;8.204;2023-05-01T11:04:49;99529.19;;;15.66;100.00
35023;BME280;21214;44.912;8.204;2023-05-01T11:07:20;99531.19;;;15.64;100.00
35023;BME280;21214;44.912;8.204;2023-05-01T11:09:55;99533.56;;;15.59;100.00
35023;BME280;21214;44.912;8.204;2023-05-01T11:15:07;99521.63;;;15.47;100.00
35023;BME280;21214;44.912;8.204;2023-05-01T11:20:05;99517.31;;;15.46;100.00
35023;BME280;21214;44.912;8.204;2023-05-01T11:22:32;99518.59;;;15.50;100.00
35023;BME280;21214;44.912;8.204;2023-05-01T11:24:57;99514.09;;;15.50;100.00
35023;BME280;21214;44.912;8.204;2023-05-01T11:27:22;99521.47;;;15.48;100.00
35023;BME280;21214;44.912;8.204;2023-05-01T11:29:48;99515.94;;;15.50;100.00
35023;BME280;21214;44.912;8.204;2023-05-01T11:32:15;99515.31;;;15.48;100.00
35023;BME280;21214;44.912;8.204;2023-05-01T11:34:42;99512.00;;;15.38;100.00
35023;BME280;21214;44.912;8.204;2023-05-01T11:37:08;99515.72;;;15.29;100.00
35023;BME280;21214;44.912;8.204;2023-05-01T11:39:33;99514.28;;;15.18;100.00
35023;BME280;21214;44.912;8.204;2023-05-01T11:42:05;99514.75;;;15.22;100.00
35023;BME280;21214;44.912;8.204;2023-05-01T11:44:30;99508.81;;;15.20;100.00
35023;BME280;21214;44.912;8.204;2023-05-01T11:46:56;99507.16;;;15.10;100.00
35023;BME280;21214;44.912;8.204;2023-05-01T11:49:27;99502.31;;;15.14;100.00
35023;BME280;21214;44.912;8.204;2023-05-01T11:51:56;99510.13;;;15.15;100.00
35023;BME280;21214;44.912;8.204;2023-05-01T11:54:22;99500.16;;;15.18;100.00
35023;BME280;21214;44.912;8.204;2023-05-01T11:56:47;99502.00;;;15.17;100.00
35023;BME280;21214;44.912;8.204;2023-05-01T11:59:21;99496.84;;;15.15;100.00
35023;BME280;21214;44.912;8.204;2023-05-01T12:01:46;99499.50;;;15.15;100.00
35023;BME280;21214;44.912;8.204;2023-05-01T12:04:12;99498.66;;;15.23;100.00
35023;BME280;21214;44.912;8.204;2023-05-01T12:06:46;99494.47;;;15.29;100.00
35023;BME280;21214;44.912;8.204;2023-05-01T12:09:16;99500.84;;;15.20;100.00
35023;BME280;21214;44.912;8.204;2023-05-01T12:11:42;99496.69;;;15.17;100.00
35023;BME280;21214;44.912;8.204;2023-05-01T12:14:08;99496.53;;;15.19;100.00
35023;BME280;21214;44.912;8.204;2023-05-01T12:16:34;99493.81;;;15.27;100.00
35023;BME280;21214;44.912;8.204;2023-05-01T12:19:00;99498.63;;;15.31;100.00
35023;BME280;21214;44.912;8.204;2023-05-01T12:21:25;99498.13;;;15.28;100.00
35023;BME280;21214;44.912;8.204;2023-05-01T12:23:52;99497.78;;;15.31;100.00
35023;BME280;21214;44.912;8.204;2023-05-01T12:26:19;99502.75;;;15.34;100.00
35023;BME280;21214;44.912;8.204;2023-05-01T12:31:19;99494.44;;;15.37;100.00
35023;BME280;21214;44.912;8.204;2023-05-01T12:36:21;99500.38;;;15.39;100.00
35023;BME280;21214;44.912;8.204;2023-05-01T12:39:08;99507.53;;;15.38;100.00
35023;BME280;21214;44.912;8.204;2023-05-01T12:41:41;99507.66;;;15.45;100.00
35023;BME280;21214;44.912;8.204;2023-05-01T12:46:45;99509.78;;;15.57;100.00
35023;BME280;21214;44.912;8.204;2023-05-01T12:49:17;99507.25;;;15.64;100.00
35023;BME280;21214;44.912;8.204;2023-05-01T12:51:46;99508.63;;;15.60;100.00
35023;BME280;21214;44.912;8.204;2023-05-01T12:56:45;99521.25;;;15.50;100.00
35023;BME280;21214;44.912;8.204;2023-05-01T12:59:24;99513.63;;;15.55;100.00
35023;BME280;21214;44.912;8.204;2023-05-01T13:02:00;99519.28;;;15.52;100.00
35023;BME280;21214;44.912;8.204;2023-05-01T13:04:26;99517.75;;;15.49;100.00
35023;BME280;21214;44.912;8.204;2023-05-01T13:06:52;99518.28;;;15.53;100.00
35023;BME280;21214;44.912;8.204;2023-05-01T13:09:21;99511.44;;;15.59;100.00
35023;BME280;21214;44.912;8.204;2023-05-01T13:11:59;99515.56;;;15.61;100.00
35023;BME280;21214;44.912;8.204;2023-05-01T13:14:39;99506.97;;;15.59;100.00
35023;BME280;21214;44.912;8.204;2023-05-01T13:17:05;99503.66;;;15.49;100.00
35023;BME280;21214;44.912;8.204;2023-05-01T13:19:31;99504.47;;;15.49;100.00
35023;BME280;21214;44.912;8.204;2023-05-01T13:21:57;99507.50;;;15.46;100.00